sensor_id;sensor_type;location;lat;lon;timestamp;temperature;humidity
12384;DHT22;6256;63.808;20.336;2023-08-08T00:00:38;22.40;99.90
12384;DHT22;6256;63.808;20.336;2023-08-08T00:03:04;22.40;99.90
12384;DHT22;6256;63.808;20.336;2023-08-08T00:05:30;22.40;99.90
12384;DHT22;6256;63.808;20.336;2023-08-08T00:07:56;22.40;99.90
12384;DHT22;6256;63.808;20.336;2023-08-08T00:10:21;22.40;99.90
12384;DHT22;6256;63.808;20.336;2023-08-08T00:12:47;22.30;99.90
12384;DHT22;6256;63.808;20.336;2023-08-08T00:15:13;22.30;99.90
12384;DHT22;6256;63.808;20.336;2023-08-08T00:17:38;22.30;99.90
12384;DHT22;6256;63.808;20.336;2023-08-08T00:20:05;22.30;99.90
12384;DHT22;6256;63.808;20.336;2023-08-08T00:22:31;22.20;99.90
12384;DHT22;6256;63.808;20.336;2023-08-08T00:24:56;22.10;99.90
12384;DHT22;6256;63.808;20.336;2023-08-08T00:29:48;22.10;99.90
12384;DHT22;6256;63.808;20.336;2023-08-08T00:32:16;22.00;99.90
12384;DHT22;6256;63.808;20.336;2023-08-08T00:37:07;22.00;99.90
12384;DHT22;6256;63.808;20.336;2023-08-08T00:39:33;22.00;99.90
12384;DHT22;6256;63.808;20.336;2023-08-08T00:41:59;22.00;99.90
12384;DHT22;6256;63.808;20.336;2023-08-08T00:44:24;22.00;99.90
12384;DHT22;6256;63.808;20.336;2023-08-08T00:46:50;22.00;99.90
12384;DHT22;6256;63.808;20.336;2023-08-08T00:49:16;21.90;99.90
12384;DHT22;6256;63.808;20.336;2023-08-08T00:51:42;21.90;99.90
12384;DHT22;6256;63.808;20.336;2023-08-08T00:54:09;21.90;99.90
12384;DHT22;6256;63.808;20.336;2023-08-08T00:56:35;21.90;99.90
12384;DHT22;6256;63.808;20.336;2023-08-08T00:59:02;21.90;99.90
12384;DHT22;6256;63.808;20.336;2023-08-08T01:01:27;21.90;99.90
12384;DHT22;6256;63.808;20.336;2023-08-08T01:03:53;21.90;99.90
12384;DHT22;6256;63.808;20.336;2023-08-08T01:06:31;21.90;99.90
12384;DHT22;6256;63.808;20.336;2023-08-08T01:09:04;21.90;99.90
12384;DHT22;6256;63.808;20.336;2023-08-08T01:11:34;21.90;99.90
12384;DHT22;6256;63.808;20.336;2023-08-08T01:14:03;21.80;99.90
12384;DHT22;6256;63.808;20.336;2023-08-08T01:16:30;21.80;99.90
12384;DHT22;6256;63.808;20.336;2023-08-08T01:18:57;21.80;99.90
12384;DHT22;6256;63.808;20.336;2023-08-08T01:21:24;21.80;99.90
12384;DHT22;6256;63.808;20.336;2023-08-08T01:24:00;21.80;99.90
12384;DHT22;6256;63.808;20.336;2023-08-08T01:26:26;21.80;99.90
12384;DHT22;6256;63.808;20.336;2023-08-08T01:28:53;21.80;99.90
12384;DHT22;6256;63.808;20.336;2023-08-08T01:31:20;21.70;99.90
12384;DHT22;6256;63.808;20.336;2023-08-08T01:33:46;21.70;99.90
12384;DHT22;6256;63.808;20.336;2023-08-08T01:36:27;21.70;99.90
12384;DHT22;6256;63.808;20.336;2023-08-08T01:38:59;21.70;99.90
12384;DHT22;6256;63.808;20.336;2023-08-08T01:41:31;21.70;99.90
12384;DHT22;6256;63.808;20.336;2023-08-08T01:43:57;21.70;99.90
12384;DHT22;6256;63.808;20.336;2023-08-08T01:46:24;21.60;99.90
12384;DHT22;6256;63.808;20.336;2023-08-08T01:48:50;21.60;99.90
12384;DHT22;6256;63.808;20.336;2023-08-08T01:51:15;21.60;99.90
12384;DHT22;6256;63.808;20.336;2023-08-08T01:53:41;21.60;99.90
12384;DHT22;6256;63.808;20.336;2023-08-08T01:56:07;21.60;99.90
12384;DHT22;6256;63.808;20.336;2023-08-08T01:58:33;21.50;99.90
12384;DHT22;6256;63.808;20.336;2023-08-08T02:00:59;21.60;99.90
12384;DHT22;6256;63.808;20.336;2023-08-08T02:03:25;21.50;99.90
12384;DHT22;6256;63.808;20.336;2023-08-08T02:05:50;21.50;99.90
12384;DHT22;6256;63.808;20.336;2023-08-08T02:08:16;21.40;99.90
12384;DHT22;6256;63.808;20.336;2023-08-08T02:10:43;21.40;99.90
12384;DHT22;6256;63.808;20.336;2023-08-08T02:13:09;21.30;99.90
12384;DHT22;6256;63.808;20.336;2023-08-08T02:15:34;21.30;99.90
12384;DHT22;6256;63.808;20.336;2023-08-08T02:18:00;21.30;99.90
12384;DHT22;6256;63.808;20.336;2023-08-08T02:20:26;21.20;99.90
12384;DHT22;6256;63.808;20.336;2023-08-08T02:22:52;21.20;99.90
12384;DHT22;6256;63.808;20.336;2023-08-08T02:25:18;21.10;99.90
12384;DHT22;6256;63.808;20.336;2023-08-08T02:30:10;21.10;99.90
12384;DHT22;6256;63.808;20.336;2023-08-08T02:32:36;21.10;99.90
12384;DHT22;6256;63.808;20.336;2023-08-08T02:35:02;21.10;99.90
12384;DHT22;6256;63.808;20.336;2023-08-08T02:37:27;21.10;99.90
12384;DHT22;6256;63.808;20.336;2023-08-08T02:39:53;21.10;99.90
12384;DHT22;6256;63.808;20.336;2023-08-08T02:42:19;21.00;99.90
12384;DHT22;6256;63.808;20.336;2023-08-08T02:44:44;21.00;99.90
12384;DHT22;6256;63.808;20.336;2023-08-08T02:47:10;21.00;99.90
12384;DHT22;6256;63.808;20.336;2023-08-08T02:49:36;21.00;99.90
12384;DHT22;6256;63.808;20.336;2023-08-08T02:52:02;21.00;99.90
12384;DHT22;6256;63.808;20.336;2023-08-08T02:54:31;20.90;99.90
12384;DHT22;6256;63.808;20.336;2023-08-08T02:56:56;20.90;99.90
12384;DHT22;6256;63.808;20.336;2023-08-08T02:59:22;20.90;99.90
12384;DHT22;6256;63.808;20.336;2023-08-08T03:01:48;20.90;99.90
12384;DHT22;6256;63.808;20.336;2023-08-08T03:04:14;20.90;99.90
12384;DHT22;6256;63.808;20.336;2023-08-08T03:06:40;20.90;99.90
12384;DHT22;6256;63.808;20.336;2023-08-08T03:09:06;20.80;99.90
12384;DHT22;6256;63.808;20.336;2023-08-08T03:11:32;20.90;99.90
12384;DHT22;6256;63.808;20.336;2023-08-08T03:14:01;20.90;99.90
12384;DHT22;6256;63.808;20.336;2023-08-08T03:16:26;20.90;99.90
12384;DHT22;6256;63.808;20.336;2023-08-08T03:18:52;20.90;99.90
12384;DHT22;6256;63.808;20.336;2023-08-08T03:21:18;20.90;99.90
12384;DHT22;6256;63.808;20.336;2023-08-08T03:23:44;20.90;99.90
12384;DHT22;6256;63.808;20.336;2023-08-08T03:26:10;20.90;99.90
12384;DHT22;6256;63.808;20.336;2023-08-08T03:28:35;20.90;99.90
12384;DHT22;6256;63.808;20.336;2023-08-08T03:31:01;20.90;99.90
12384;DHT22;6256;63.808;20.336;2023-08-08T03:33:31;20.90;99.90
12384;DHT22;6256;63.808;20.336;2023-08-08T03:35:57;20.90;99.90
12384;DHT22;6256;63.808;20.336;2023-08-08T03:38:22;20.90;99.90
12384;DHT22;6256;63.808;20.336;2023-08-08T03:40:48;20.90;99.90
12384;DHT22;6256;63.808;20.336;2023-08-08T03:43:14;20.90;99.90
12384;DHT22;6256;63.808;20.336;2023-08-08T03:45:40;20.90;99.90
12384;DHT22;6256;63.808;20.336;2023-08-08T03:48:06;21.00;99.90
12384;DHT22;6256;63.808;20.336;2023-08-08T03:50:31;21.00;99.90
12384;DHT22;6256;63.808;20.336;2023-08-08T03:52:57;21.00;99.90
12384;DHT22;6256;63.808;20.336;2023-08-08T03:55:23;21.00;99.90
12384;DHT22;6256;63.808;20.336;2023-08-08T03:57:49;21.10;99.90
12384;DHT22;6256;63.808;20.336;2023-08-08T04:00:15;21.10;99.90
12384;DHT22;6256;63.808;20.336;2023-08-08T04:02:41;21.20;99.90
12384;DHT22;6256;63.808;20.336;2023-08-08T04:05:07;21.10;99.90
12384;DHT22;6256;63.808;20.336;2023-08-08T04:07:33;21.20;99.90
12384;DHT22;6256;63.808;20.336;2023-08-08T04:09:59;21.20;99.90
12384;DHT22;6256;63.808;20.336;2023-08-08T04:12:24;21.30;99.90
12384;DHT22;6256;63.808;20.336;2023-08-08T04:14:50;21.30;99.90
12384;DHT22;6256;63.808;20.336;2023-08-08T04:17:16;21.30;99.90
12384;DHT22;6256;63.808;20.336;2023-08-08T04:19:41;21.40;99.90
12384;DHT22;6256;63.808;20.336;2023-08-08T04:22:07;21.30;99.90
12384;DHT22;6256;63.808;20.336;2023-08-08T04:24:33;21.40;99.90
12384;DHT22;6256;63.808;20.336;2023-08-08T04:26:59;21.50;99.90
12384;DHT22;6256;63.808;20.336;2023-08-08T04:29:24;21.50;99.90
12384;DHT22;6256;63.808;20.336;2023-08-08T04:31:50;21.60;99.90
12384;DHT22;6256;63.808;20.336;2023-08-08T04:34:16;21.60;99.90
12384;DHT22;6256;63.808;20.336;2023-08-08T04:36:42;21.60;99.90
12384;DHT22;6256;63.808;20.336;2023-08-08T04:39:08;21.70;99.90
12384;DHT22;6256;63.808;20.336;2023-08-08T04:41:34;21.70;99.90
12384;DHT22;6256;63.808;20.336;2023-08-08T04:44:00;21.70;99.90
12384;DHT22;6256;63.808;20.336;2023-08-08T04:46:25;21.70;99.90
12384;DHT22;6256;63.808;20.336;2023-08-08T04:48:51;21.80;99.90
12384;DHT22;6256;63.808;20.336;2023-08-08T04:51:17;21.90;99.90
12384;DHT22;6256;63.808;20.336;2023-08-08T04:53:42;21.90;99.90
12384;DHT22;6256;63.808;20.336;2023-08-08T04:56:08;21.90;99.90
12384;DHT22;6256;63.808;20.336;2023-08-08T04:58:34;21.90;99.90
12384;DHT22;6256;63.808;20.336;2023-08-08T05:00:59;21.90;99.90
12384;DHT22;6256;63.808;20.336;2023-08-08T05:03:25;22.00;99.90
12384;DHT22;6256;63.808;20.336;2023-08-08T05:05:51;22.00;99.90
12384;DHT22;6256;63.808;20.336;2023-08-08T05:08:16;22.00;99.90
12384;DHT22;6256;63.808;20.336;2023-08-08T05:10:42;22.00;99.90
12384;DHT22;6256;63.808;20.336;2023-08-08T05:13:09;22.10;99.90
12384;DHT22;6256;63.808;20.336;2023-08-08T05:15:35;22.10;99.90
12384;DHT22;6256;63.808;20.336;2023-08-08T05:18:01;22.10;99.90
12384;DHT22;6256;63.808;20.336;2023-08-08T05:20:27;22.20;99.90
12384;DHT22;6256;63.808;20.336;2023-08-08T05:22:53;22.20;99.90
12384;DHT22;6256;63.808;20.336;2023-08-08T05:25:18;22.30;99.90
12384;DHT22;6256;63.808;20.336;2023-08-08T05:27:44;22.30;99.90
12384;DHT22;6256;63.808;20.336;2023-08-08T05:30:10;22.40;99.90
12384;DHT22;6256;63.808;20.336;2023-08-08T05:32:36;22.40;99.90
12384;DHT22;6256;63.808;20.336;2023-08-08T05:35:01;22.40;99.90
12384;DHT22;6256;63.808;20.336;2023-08-08T05:37:30;22.40;99.90
12384;DHT22;6256;63.808;20.336;2023-08-08T05:39:55;22.50;99.90
12384;DHT22;6256;63.808;20.336;2023-08-08T05:42:21;22.60;99.90
12384;DHT22;6256;63.808;20.336;2023-08-08T05:44:47;22.60;99.90
12384;DHT22;6256;63.808;20.336;2023-08-08T05:47:13;22.60;99.90
12384;DHT22;6256;63.808;20.336;2023-08-08T05:49:39;22.70;99.90
12384;DHT22;6256;63.808;20.336;2023-08-08T05:52:07;22.70;99.90
12384;DHT22;6256;63.808;20.336;2023-08-08T05:54:32;22.80;99.90
12384;DHT22;6256;63.808;20.336;2023-08-08T05:56:59;22.80;99.90
12384;DHT22;6256;63.808;20.336;2023-08-08T05:59:24;22.90;99.90
12384;DHT22;6256;63.808;20.336;2023-08-08T06:01:50;22.90;99.90
12384;DHT22;6256;63.808;20.336;2023-08-08T06:04:16;22.90;99.90
12384;DHT22;6256;63.808;20.336;2023-08-08T06:06:42;22.90;99.90
12384;DHT22;6256;63.808;20.336;2023-08-08T06:09:07;22.90;99.90
12384;DHT22;6256;63.808;20.336;2023-08-08T06:11:34;23.00;99.90
12384;DHT22;6256;63.808;20.336;2023-08-08T06:14:00;23.00;99.90
12384;DHT22;6256;63.808;20.336;2023-08-08T06:16:26;23.00;99.90
12384;DHT22;6256;63.808;20.336;2023-08-08T06:18:52;23.00;99.90
12384;DHT22;6256;63.808;20.336;2023-08-08T06:21:18;23.00;99.90
12384;DHT22;6256;63.808;20.336;2023-08-08T06:23:44;23.10;99.90
12384;DHT22;6256;63.808;20.336;2023-08-08T06:26:09;23.10;99.90
12384;DHT22;6256;63.808;20.336;2023-08-08T06:28:35;23.20;99.90
12384;DHT22;6256;63.808;20.336;2023-08-08T06:31:01;23.30;99.90
12384;DHT22;6256;63.808;20.336;2023-08-08T06:33:27;23.30;99.90
12384;DHT22;6256;63.808;20.336;2023-08-08T06:35:55;23.40;99.90
12384;DHT22;6256;63.808;20.336;2023-08-08T06:38:20;23.40;99.90
12384;DHT22;6256;63.808;20.336;2023-08-08T06:40:46;23.50;99.90
12384;DHT22;6256;63.808;20.336;2023-08-08T06:43:12;23.60;99.90
12384;DHT22;6256;63.808;20.336;2023-08-08T06:45:39;23.60;99.90
12384;DHT22;6256;63.808;20.336;2023-08-08T06:48:05;23.60;99.90
12384;DHT22;6256;63.808;20.336;2023-08-08T06:50:31;23.60;99.90
12384;DHT22;6256;63.808;20.336;2023-08-08T06:52:56;23.70;99.90
12384;DHT22;6256;63.808;20.336;2023-08-08T06:55:22;23.80;99.90
12384;DHT22;6256;63.808;20.336;2023-08-08T06:57:48;23.80;99.90
12384;DHT22;6256;63.808;20.336;2023-08-08T07:00:14;23.90;99.90
12384;DHT22;6256;63.808;20.336;2023-08-08T07:02:41;23.90;99.90
12384;DHT22;6256;63.808;20.336;2023-08-08T07:05:07;24.00;99.90
12384;DHT22;6256;63.808;20.336;2023-08-08T07:07:35;24.00;99.90
12384;DHT22;6256;63.808;20.336;2023-08-08T07:10:01;24.00;99.90
12384;DHT22;6256;63.808;20.336;2023-08-08T07:12:27;24.10;99.90
12384;DHT22;6256;63.808;20.336;2023-08-08T07:14:56;24.10;99.90
12384;DHT22;6256;63.808;20.336;2023-08-08T07:17:21;24.20;99.90
12384;DHT22;6256;63.808;20.336;2023-08-08T07:19:47;24.20;99.90
12384;DHT22;6256;63.808;20.336;2023-08-08T07:22:13;24.20;99.90
12384;DHT22;6256;63.808;20.336;2023-08-08T07:24:38;24.20;99.90
12384;DHT22;6256;63.808;20.336;2023-08-08T07:27:04;24.30;99.90
12384;DHT22;6256;63.808;20.336;2023-08-08T07:29:30;24.30;99.90
12384;DHT22;6256;63.808;20.336;2023-08-08T07:31:58;24.40;99.90
12384;DHT22;6256;63.808;20.336;2023-08-08T07:34:24;24.40;99.90
12384;DHT22;6256;63.808;20.336;2023-08-08T07:36:50;24.50;99.90
12384;DHT22;6256;63.808;20.336;2023-08-08T07:39:16;24.50;99.90
12384;DHT22;6256;63.808;20.336;2023-08-08T07:41:42;24.60;99.90
12384;DHT22;6256;63.808;20.336;2023-08-08T07:44:07;24.60;99.90
12384;DHT22;6256;63.808;20.336;2023-08-08T07:46:33;24.70;99.90
12384;DHT22;6256;63.808;20.336;2023-08-08T07:48:59;24.70;99.90
12384;DHT22;6256;63.808;20.336;2023-08-08T07:51:29;24.70;99.90
12384;DHT22;6256;63.808;20.336;2023-08-08T07:53:55;24.80;99.90
12384;DHT22;6256;63.808;20.336;2023-08-08T07:56:20;24.80;99.90
12384;DHT22;6256;63.808;20.336;2023-08-08T07:58:46;25.00;99.90
12384;DHT22;6256;63.808;20.336;2023-08-08T08:01:12;25.00;99.90
12384;DHT22;6256;63.808;20.336;2023-08-08T08:03:39;25.00;99.90
12384;DHT22;6256;63.808;20.336;2023-08-08T08:06:05;25.00;99.90
12384;DHT22;6256;63.808;20.336;2023-08-08T08:08:31;25.00;99.90
12384;DHT22;6256;63.808;20.336;2023-08-08T08:10:57;25.00;99.90
12384;DHT22;6256;63.808;20.336;2023-08-08T08:13:22;25.00;99.90
12384;DHT22;6256;63.808;20.336;2023-08-08T08:15:48;25.00;99.90
12384;DHT22;6256;63.808;20.336;2023-08-08T08:18:14;25.00;99.90
12384;DHT22;6256;63.808;20.336;2023-08-08T08:20:45;25.00;99.90
12384;DHT22;6256;63.808;20.336;2023-08-08T08:23:12;25.10;99.90
12384;DHT22;6256;63.808;20.336;2023-08-08T08:25:38;25.20;99.90
12384;DHT22;6256;63.808;20.336;2023-08-08T08:28:03;25.20;99.90
12384;DHT22;6256;63.808;20.336;2023-08-08T08:30:29;25.30;99.90
12384;DHT22;6256;63.808;20.336;2023-08-08T08:32:55;25.30;99.90
12384;DHT22;6256;63.808;20.336;2023-08-08T08:35:22;25.40;99.90
12384;DHT22;6256;63.808;20.336;2023-08-08T08:37:48;25.60;99.90
12384;DHT22;6256;63.808;20.336;2023-08-08T08:40:14;25.70;99.90
12384;DHT22;6256;63.808;20.336;2023-08-08T08:42:40;25.90;99.90
12384;DHT22;6256;63.808;20.336;2023-08-08T08:45:08;26.00;99.90
12384;DHT22;6256;63.808;20.336;2023-08-08T08:47:36;26.20;99.90
12384;DHT22;6256;63.808;20.336;2023-08-08T08:50:02;26.40;99.90
12384;DHT22;6256;63.808;20.336;2023-08-08T08:52:29;26.60;99.90
12384;DHT22;6256;63.808;20.336;2023-08-08T08:54:55;26.50;99.90
12384;DHT22;6256;63.808;20.336;2023-08-08T08:57:22;26.50;99.90
12384;DHT22;6256;63.808;20.336;2023-08-08T08:59:51;26.50;99.90
12384;DHT22;6256;63.808;20.336;2023-08-08T09:02:18;26.60;99.90
12384;DHT22;6256;63.808;20.336;2023-08-08T09:04:44;26.60;99.90
12384;DHT22;6256;63.808;20.336;2023-08-08T09:07:11;26.50;99.90
12384;DHT22;6256;63.808;20.336;2023-08-08T09:09:37;26.40;99.90
12384;DHT22;6256;63.808;20.336;2023-08-08T09:12:04;26.50;99.90
12384;DHT22;6256;63.808;20.336;2023-08-08T09:14:31;26.60;99.90
12384;DHT22;6256;63.808;20.336;2023-08-08T09:16:57;26.60;99.90
12384;DHT22;6256;63.808;20.336;2023-08-08T09:19:24;26.80;99.90
12384;DHT22;6256;63.808;20.336;2023-08-08T09:21:51;26.80;99.90
12384;DHT22;6256;63.808;20.336;2023-08-08T09:24:17;26.80;99.90
12384;DHT22;6256;63.808;20.336;2023-08-08T09:26:44;26.90;99.90
12384;DHT22;6256;63.808;20.336;2023-08-08T09:29:13;27.00;99.90
12384;DHT22;6256;63.808;20.336;2023-08-08T09:31:40;27.10;99.90
12384;DHT22;6256;63.808;20.336;2023-08-08T09:34:06;27.00;99.90
12384;DHT22;6256;63.808;20.336;2023-08-08T09:36:33;27.10;99.90
12384;DHT22;6256;63.808;20.336;2023-08-08T09:38:59;27.10;99.90
12384;DHT22;6256;63.808;20.336;2023-08-08T09:41:25;27.20;99.90
12384;DHT22;6256;63.808;20.336;2023-08-08T09:43:53;27.30;99.90
12384;DHT22;6256;63.808;20.336;2023-08-08T09:46:19;27.40;99.90
12384;DHT22;6256;63.808;20.336;2023-08-08T09:48:46;27.40;99.90
12384;DHT22;6256;63.808;20.336;2023-08-08T09:51:12;27.50;99.90
12384;DHT22;6256;63.808;20.336;2023-08-08T09:53:39;27.70;99.90
12384;DHT22;6256;63.808;20.336;2023-08-08T09:56:06;27.70;99.90
12384;DHT22;6256;63.808;20.336;2023-08-08T09:58:33;27.80;99.90
12384;DHT22;6256;63.808;20.336;2023-08-08T10:00:59;28.10;99.90
12384;DHT22;6256;63.808;20.336;2023-08-08T10:03:25;28.30;99.90
12384;DHT22;6256;63.808;20.336;2023-08-08T10:05:52;28.20;99.90
12384;DHT22;6256;63.808;20.336;2023-08-08T10:08:18;28.10;99.90
12384;DHT22;6256;63.808;20.336;2023-08-08T10:10:46;27.70;99.90
12384;DHT22;6256;63.808;20.336;2023-08-08T10:13:46;27.60;99.90
12384;DHT22;6256;63.808;20.336;2023-08-08T10:16:15;27.30;99.90
12384;DHT22;6256;63.808;20.336;2023-08-08T10:18:41;27.30;99.90
12384;DHT22;6256;63.808;20.336;2023-08-08T10:21:07;27.30;99.90
12384;DHT22;6256;63.808;20.336;2023-08-08T10:23:38;27.10;99.90
12384;DHT22;6256;63.808;20.336;2023-08-08T10:26:05;27.10;99.90
12384;DHT22;6256;63.808;20.336;2023-08-08T10:28:32;26.90;99.90
12384;DHT22;6256;63.808;20.336;2023-08-08T10:31:01;26.70;99.90
12384;DHT22;6256;63.808;20.336;2023-08-08T10:33:39;26.50;99.90
12384;DHT22;6256;63.808;20.336;2023-08-08T10:36:06;26.40;99.90
12384;DHT22;6256;63.808;20.336;2023-08-08T10:38:47;26.30;99.90
12384;DHT22;6256;63.808;20.336;2023-08-08T10:41:22;26.20;99.90
12384;DHT22;6256;63.808;20.336;2023-08-08T10:43:53;26.20;99.90
12384;DHT22;6256;63.808;20.336;2023-08-08T10:48:53;25.90;99.90
12384;DHT22;6256;63.808;20.336;2023-08-08T10:51:20;25.70;99.90
12384;DHT22;6256;63.808;20.336;2023-08-08T10:53:46;25.50;99.90
12384;DHT22;6256;63.808;20.336;2023-08-08T10:56:14;25.30;99.90
12384;DHT22;6256;63.808;20.336;2023-08-08T10:58:42;25.30;99.90
12384;DHT22;6256;63.808;20.336;2023-08-08T11:01:08;25.40;99.90
12384;DHT22;6256;63.808;20.336;2023-08-08T11:03:39;25.30;99.90
12384;DHT22;6256;63.808;20.336;2023-08-08T11:06:10;25.30;99.90
12384;DHT22;6256;63.808;20.336;2023-08-08T11:08:36;25.30;99.90
12384;DHT22;6256;63.808;20.336;2023-08-08T11:11:04;25.20;99.90
12384;DHT22;6256;63.808;20.336;2023-08-08T11:13:30;24.90;99.90
12384;DHT22;6256;63.808;20.336;2023-08-08T11:15:56;24.90;99.90
12384;DHT22;6256;63.808;20.336;2023-08-08T11:18:22;24.90;99.90
12384;DHT22;6256;63.808;20.336;2023-08-08T11:20:49;24.90;99.90
12384;DHT22;6256;63.808;20.336;2023-08-08T11:23:15;24.90;99.90
12384;DHT22;6256;63.808;20.336;2023-08-08T11:25:44;24.90;99.90
12384;DHT22;6256;63.808;20.336;2023-08-08T11:28:11;24.80;99.90
12384;DHT22;6256;63.808;20.336;2023-08-08T11:30:40;24.90;99.90
12384;DHT22;6256;63.808;20.336;2023-08-08T11:33:06;25.00;99.90
12384;DHT22;6256;63.808;20.336;2023-08-08T11:35:32;25.20;99.90
12384;DHT22;6256;63.808;20.336;2023-08-08T11:38:00;25.90;99.90
12384;DHT22;6256;63.808;20.336;2023-08-08T11:40:28;26.30;99.90
12384;DHT22;6256;63.808;20.336;2023-08-08T11:42:57;26.60;99.90
12384;DHT22;6256;63.808;20.336;2023-08-08T11:45:24;26.80;99.90
12384;DHT22;6256;63.808;20.336;2023-08-08T11:47:54;27.60;99.90
12384;DHT22;6256;63.808;20.336;2023-08-08T11:50:21;28.10;99.90
12384;DHT22;6256;63.808;20.336;2023-08-08T11:52:51;28.30;99.90
12384;DHT22;6256;63.808;20.336;2023-08-08T11:55:18;29.40;99.90
12384;DHT22;6256;63.808;20.336;2023-08-08T11:57:48;30.10;99.90
12384;DHT22;6256;63.808;20.336;2023-08-08T12:00:15;30.60;99.90
12384;DHT22;6256;63.808;20.336;2023-08-08T12:02:44;30.70;99.90
12384;DHT22;6256;63.808;20.336;2023-08-08T12:05:13;30.40;99.90
12384;DHT22;6256;63.808;20.336;2023-08-08T12:07:40;30.70;99.90
12384;DHT22;6256;63.808;20.336;2023-08-08T12:10:16;30.90;99.90
12384;DHT22;6256;63.808;20.336;2023-08-08T12:12:44;31.00;99.90
12384;DHT22;6256;63.808;20.336;2023-08-08T12:15:11;31.00;99.90
12384;DHT22;6256;63.808;20.336;2023-08-08T12:17:37;31.40;99.90
12384;DHT22;6256;63.808;20.336;2023-08-08T12:20:04;31.20;99.90
12384;DHT22;6256;63.808;20.336;2023-08-08T12:22:33;30.20;99.90
12384;DHT22;6256;63.808;20.336;2023-08-08T12:24:59;29.60;99.90
12384;DHT22;6256;63.808;20.336;2023-08-08T12:27:25;28.60;99.90
12384;DHT22;6256;63.808;20.336;2023-08-08T12:29:51;28.10;99.90
12384;DHT22;6256;63.808;20.336;2023-08-08T12:32:20;27.60;99.90
12384;DHT22;6256;63.808;20.336;2023-08-08T12:34:49;27.00;99.90
12384;DHT22;6256;63.808;20.336;2023-08-08T12:37:15;26.50;99.90
12384;DHT22;6256;63.808;20.336;2023-08-08T12:39:41;26.20;99.90
12384;DHT22;6256;63.808;20.336;2023-08-08T12:42:07;25.90;99.90
12384;DHT22;6256;63.808;20.336;2023-08-08T12:44:32;25.40;99.90
12384;DHT22;6256;63.808;20.336;2023-08-08T12:46:58;24.80;99.90
12384;DHT22;6256;63.808;20.336;2023-08-08T12:49:24;24.50;99.90
12384;DHT22;6256;63.808;20.336;2023-08-08T12:51:50;24.50;99.90
12384;DHT22;6256;63.808;20.336;2023-08-08T12:54:17;25.90;99.90
12384;DHT22;6256;63.808;20.336;2023-08-08T12:56:43;27.30;99.90
12384;DHT22;6256;63.808;20.336;2023-08-08T12:59:09;27.30;99.90
12384;DHT22;6256;63.808;20.336;2023-08-08T13:01:35;26.90;99.90
12384;DHT22;6256;63.808;20.336;2023-08-08T13:04:01;27.10;99.90
12384;DHT22;6256;63.808;20.336;2023-08-08T13:06:26;27.60;99.90
12384;DHT22;6256;63.808;20.336;2023-08-08T13:08:52;27.80;99.90
12384;DHT22;6256;63.808;20.336;2023-08-08T13:11:18;27.40;99.90
12384;DHT22;6256;63.808;20.336;2023-08-08T13:13:44;27.60;99.90
12384;DHT22;6256;63.808;20.336;2023-08-08T13:16:09;28.60;99.90
12384;DHT22;6256;63.808;20.336;2023-08-08T13:18:36;29.40;99.90
12384;DHT22;6256;63.808;20.336;2023-08-08T13:21:02;30.50;99.90
12384;DHT22;6256;63.808;20.336;2023-08-08T13:23:28;31.00;99.90
12384;DHT22;6256;63.808;20.336;2023-08-08T13:25:54;30.90;99.90
12384;DHT22;6256;63.808;20.336;2023-08-08T13:28:20;30.70;99.90
12384;DHT22;6256;63.808;20.336;2023-08-08T13:30:46;29.90;99.90
12384;DHT22;6256;63.808;20.336;2023-08-08T13:33:11;29.30;99.90
12384;DHT22;6256;63.808;20.336;2023-08-08T13:35:37;30.10;99.90
12384;DHT22;6256;63.808;20.336;2023-08-08T13:38:03;30.90;99.90
12384;DHT22;6256;63.808;20.336;2023-08-08T13:40:29;31.20;99.90
12384;DHT22;6256;63.808;20.336;2023-08-08T13:42:54;31.00;99.90
12384;DHT22;6256;63.808;20.336;2023-08-08T13:45:20;31.60;99.90
12384;DHT22;6256;63.808;20.336;2023-08-08T13:47:48;30.70;99.90
12384;DHT22;6256;63.808;20.336;2023-08-08T13:50:31;30.90;99.50
12384;DHT22;6256;63.808;20.336;2023-08-08T13:53:17;30.60;98.80
12384;DHT22;6256;63.808;20.336;2023-08-08T13:55:42;31.30;98.90
12384;DHT22;6256;63.808;20.336;2023-08-08T13:58:10;31.00;97.00
12384;DHT22;6256;63.808;20.336;2023-08-08T14:00:36;31.20;97.50
12384;DHT22;6256;63.808;20.336;2023-08-08T14:03:04;32.00;96.20
12384;DHT22;6256;63.808;20.336;2023-08-08T14:05:30;32.50;93.90
12384;DHT22;6256;63.808;20.336;2023-08-08T14:07:57;32.30;91.60
12384;DHT22;6256;63.808;20.336;2023-08-08T14:10:22;32.00;90.30
12384;DHT22;6256;63.808;20.336;2023-08-08T14:12:48;32.20;90.40
12384;DHT22;6256;63.808;20.336;2023-08-08T14:15:14;32.10;86.30
12384;DHT22;6256;63.808;20.336;2023-08-08T14:17:39;32.40;86.80
12384;DHT22;6256;63.808;20.336;2023-08-08T14:20:06;31.90;83.40
12384;DHT22;6256;63.808;20.336;2023-08-08T14:22:34;32.20;85.00
12384;DHT22;6256;63.808;20.336;2023-08-08T14:25:00;31.40;82.00
12384;DHT22;6256;63.808;20.336;2023-08-08T14:27:25;30.30;84.40
12384;DHT22;6256;63.808;20.336;2023-08-08T14:29:51;29.90;87.90
12384;DHT22;6256;63.808;20.336;2023-08-08T14:32:17;29.80;89.20
12384;DHT22;6256;63.808;20.336;2023-08-08T14:34:43;29.00;88.60
12384;DHT22;6256;63.808;20.336;2023-08-08T14:37:08;28.90;90.00
12384;DHT22;6256;63.808;20.336;2023-08-08T14:39:34;28.10;90.70
12384;DHT22;6256;63.808;20.336;2023-08-08T14:42:00;27.50;90.80
12384;DHT22;6256;63.808;20.336;2023-08-08T14:44:26;26.90;92.30
12384;DHT22;6256;63.808;20.336;2023-08-08T14:46:52;26.70;93.10
12384;DHT22;6256;63.808;20.336;2023-08-08T14:49:18;26.70;92.40
12384;DHT22;6256;63.808;20.336;2023-08-08T14:51:43;27.70;93.00
12384;DHT22;6256;63.808;20.336;2023-08-08T14:54:09;28.80;90.00
12384;DHT22;6256;63.808;20.336;2023-08-08T14:56:35;28.50;89.00
12384;DHT22;6256;63.808;20.336;2023-08-08T14:59:01;29.00;88.60
12384;DHT22;6256;63.808;20.336;2023-08-08T15:01:27;28.70;89.40
12384;DHT22;6256;63.808;20.336;2023-08-08T15:03:53;28.10;90.60
12384;DHT22;6256;63.808;20.336;2023-08-08T15:06:19;27.30;90.60
12384;DHT22;6256;63.808;20.336;2023-08-08T15:08:44;26.90;92.10
12384;DHT22;6256;63.808;20.336;2023-08-08T15:11:10;27.10;92.10
12384;DHT22;6256;63.808;20.336;2023-08-08T15:13:37;28.30;91.40
12384;DHT22;6256;63.808;20.336;2023-08-08T15:16:03;29.80;87.50
12384;DHT22;6256;63.808;20.336;2023-08-08T15:18:29;31.00;86.00
12384;DHT22;6256;63.808;20.336;2023-08-08T15:20:54;31.20;84.30
12384;DHT22;6256;63.808;20.336;2023-08-08T15:23:20;30.60;86.40
12384;DHT22;6256;63.808;20.336;2023-08-08T15:25:46;31.60;82.50
12384;DHT22;6256;63.808;20.336;2023-08-08T15:28:11;32.70;82.60
12384;DHT22;6256;63.808;20.336;2023-08-08T15:30:38;33.70;81.60
12384;DHT22;6256;63.808;20.336;2023-08-08T15:33:04;33.20;80.30
12384;DHT22;6256;63.808;20.336;2023-08-08T15:35:30;33.20;79.30